Time;durP1;ratioP1;P1;durP2;ratioP2;P2;SDS_P1;SDS_P2;PMS_P1;PMS_P2;Temp;Humidity;BMP_temperature;BMP_pressure;BME280_temperature;BME280_humidity;BME280_pressure;Samples;Min_cycle;Max_cycle;Signal;HPM_P1;HPM_P2
2022/11/29 00:00:48;;;;;;;19.65;11.18;;;;;;;4.87;57.91;101387.75;4985330;28;20100;-70
2022/11/29 00:03:14;;;;;;;15.75;7.65;;;;;;;4.86;57.85;101391.22;5003918;28;20549;-69
2022/11/29 00:05:39;;;;;;;20.25;9.70;;;;;;;4.88;58.21;101392.06;4987359;28;20439;-70
2022/11/29 00:08:07;;;;;;;20.80;11.45;;;;;;;4.75;58.02;101388.69;4984804;28;20045;-70
2022/11/29 00:10:36;;;;;;;23.67;10.52;;;;;;;4.83;58.02;101392.94;5004178;28;20030;-72
2022/11/29 00:13:02;;;;;;;18.38;9.82;;;;;;;4.91;57.79;101384.28;5002658;28;20092;-72
2022/11/29 00:15:28;;;;;;;25.73;11.50;;;;;;;4.97;57.72;101386.84;5002333;28;20037;-72
2022/11/29 00:17:53;;;;;;;20.90;10.95;;;;;;;4.95;57.73;101388.56;4984622;28;20502;-69
2022/11/29 00:20:19;;;;;;;28.00;11.55;;;;;;;4.89;57.77;101386.03;5001843;28;20030;-70
2022/11/29 00:22:46;;;;;;;23.17;11.52;;;;;;;4.86;57.89;101386.03;4987593;28;20048;-70
2022/11/29 00:25:12;;;;;;;25.30;11.57;;;;;;;4.87;58.04;101387.75;4987743;28;20036;-70
2022/11/29 00:27:37;;;;;;;28.38;10.38;;;;;;;4.88;57.78;101384.28;4985160;28;20049;-69
2022/11/29 00:30:03;;;;;;;22.65;11.98;;;;;;;4.81;57.79;101379.16;4983198;28;20410;-70
2022/11/29 00:32:29;;;;;;;23.02;11.85;;;;;;;4.79;58.03;101378.31;5002903;28;20069;-71
2022/11/29 00:34:54;;;;;;;26.63;12.95;;;;;;;4.53;58.79;101385.41;4997209;28;20109;-71
2022/11/29 00:37:23;;;;;;;26.45;12.55;;;;;;;4.79;58.31;101383.47;4998800;28;20042;-77
2022/11/29 00:39:50;;;;;;;30.00;11.25;;;;;;;4.75;58.37;101383.53;4991549;28;20029;-78
2022/11/29 00:42:16;;;;;;;24.42;11.35;;;;;;;4.68;58.30;101380.13;5002877;28;20052;-77
2022/11/29 00:44:41;;;;;;;28.63;10.98;;;;;;;4.72;58.33;101379.22;4979787;28;20608;-76
2022/11/29 00:47:07;;;;;;;24.73;11.30;;;;;;;4.80;58.17;101382.59;4996922;28;20409;-79
2022/11/29 00:49:32;;;;;;;23.25;11.73;;;;;;;4.68;58.45;101385.28;4999811;28;20095;-80
2022/11/29 00:51:58;;;;;;;27.48;12.57;;;;;;;4.87;58.33;101377.38;4995487;28;20102;-77
2022/11/29 00:54:24;;;;;;;21.55;11.88;;;;;;;4.95;58.17;101386.00;4992109;28;20403;-76
2022/11/29 00:56:49;;;;;;;21.42;11.00;;;;;;;4.94;58.10;101389.44;5009659;28;20184;-74
2022/11/29 00:59:20;;;;;;;20.85;11.23;;;;;;;4.97;57.97;101390.28;4993639;28;20076;-78
2022/11/29 01:01:45;;;;;;;19.60;10.50;;;;;;;5.03;57.95;101402.31;5007157;28;20036;-76
2022/11/29 01:04:11;;;;;;;28.02;11.45;;;;;;;5.03;57.77;101394.53;5012684;28;20029;-76
2022/11/29 01:06:36;;;;;;;27.48;11.65;;;;;;;4.93;58.26;101403.28;4983432;28;20033;-76
2022/11/29 01:09:02;;;;;;;23.67;12.30;;;;;;;4.98;58.06;101398.91;4985812;28;20036;-75
2022/11/29 01:11:28;;;;;;;23.73;12.10;;;;;;;4.98;57.84;101396.31;4989062;28;20076;-75
2022/11/29 01:13:56;;;;;;;20.70;11.32;;;;;;;5.00;57.80;101395.44;4974456;28;20041;-75
2022/11/29 01:16:23;;;;;;;23.75;12.13;;;;;;;5.00;57.69;101394.56;5008407;28;20056;-76
2022/11/29 01:18:48;;;;;;;24.38;11.95;;;;;;;4.99;57.84;101391.13;4992344;28;20112;-76
2022/11/29 01:21:18;;;;;;;26.85;12.00;;;;;;;4.98;57.77;101398.91;4989354;28;20296;-75
2022/11/29 01:23:45;;;;;;;24.90;11.98;;;;;;;5.01;57.92;101396.28;4964769;28;20046;-76
2022/11/29 01:26:13;;;;;;;23.75;12.50;;;;;;;5.09;58.11;101404.84;4989276;28;20339;-76
2022/11/29 01:28:39;;;;;;;27.63;12.98;;;;;;;5.15;57.98;101401.38;4988284;28;20380;-76
2022/11/29 01:31:14;;;;;;;22.13;11.57;;;;;;;5.05;57.73;101405.75;4995832;28;20040;-74
2022/11/29 01:33:40;;;;;;;26.67;12.80;;;;;;;5.04;57.64;101411.81;5003356;28;20138;-74
2022/11/29 01:36:07;;;;;;;26.73;11.82;;;;;;;5.05;57.54;101405.75;4994051;28;20045;-74
2022/11/29 01:38:33;;;;;;;24.90;12.35;;;;;;;4.91;58.34;101407.59;4993935;28;20049;-75
2022/11/29 01:41:19;;;;;;;23.70;13.50;;;;;;;5.05;57.75;101410.94;4973847;28;20025;-73
2022/11/29 01:44:11;;;;;;;27.50;11.82;;;;;;;5.07;57.83;101410.94;4977721;28;20153;-75
2022/11/29 01:46:43;;;;;;;25.20;11.55;;;;;;;5.13;57.66;101413.47;4974200;28;20049;-74
2022/11/29 01:49:29;;;;;;;25.42;12.75;;;;;;;5.09;57.69;101410.03;5005139;28;20275;-75
2022/11/29 01:51:59;;;;;;;24.15;11.95;;;;;;;5.16;57.74;101413.44;4988288;28;20060;-75
2022/11/29 01:54:30;;;;;;;23.77;11.35;;;;;;;5.14;57.43;101410.84;4995505;28;20041;-74
2022/11/29 01:56:57;;;;;;;34.15;13.95;;;;;;;5.07;57.62;101411.78;4996027;28;20056;-74
2022/11/29 01:59:26;;;;;;;40.13;12.05;;;;;;;5.07;57.99;101416.97;4972435;28;20046;-74
2022/11/29 02:01:55;;;;;;;29.40;14.30;;;;;;;5.09;57.60;101420.41;4992806;28;20174;-74
2022/11/29 02:04:20;;;;;;;30.67;12.95;;;;;;;5.10;58.02;101419.53;4987124;28;20487;-74
2022/11/29 02:06:46;;;;;;;38.95;12.63;;;;;;;5.04;58.03;101419.59;4979314;28;20018;-74
2022/11/29 02:09:19;;;;;;;27.98;13.55;;;;;;;4.98;58.56;101430.00;4987131;28;20064;-74
2022/11/29 02:12:18;;;;;;;26.33;12.05;;;;;;;5.09;57.94;101423.00;5003988;28;20100;-70
2022/11/29 02:14:54;;;;;;;29.92;13.40;;;;;;;5.12;57.80;101425.53;5004239;28;20483;-71
2022/11/29 02:17:28;;;;;;;31.60;12.85;;;;;;;5.07;57.70;101422.13;5003741;28;20064;-70
2022/11/29 02:20:19;;;;;;;27.75;13.25;;;;;;;5.11;57.82;101428.16;4989092;28;20271;-70
2022/11/29 02:23:08;;;;;;;24.58;13.10;;;;;;;5.06;57.99;101433.41;5001199;28;20518;-70
2022/11/29 02:25:51;;;;;;;23.52;11.93;;;;;;;5.15;57.91;101427.28;5003395;28;20029;-70
2022/11/29 02:28:32;;;;;;;27.50;13.23;;;;;;;5.13;57.87;101431.63;5003831;28;20065;-70
2022/11/29 02:31:12;;;;;;;27.58;12.82;;;;;;;5.09;57.78;101435.94;4986207;28;20037;-71
2022/11/29 02:33:59;;;;;;;27.88;13.38;;;;;;;5.08;57.68;101441.13;5001647;28;20118;-71
2022/11/29 02:36:43;;;;;;;26.08;12.10;;;;;;;4.99;58.41;101431.72;5004966;28;20038;-70
2022/11/29 02:39:34;;;;;;;34.85;13.10;;;;;;;5.06;57.94;101438.56;5002799;28;20037;-70
2022/11/29 02:42:21;;;;;;;32.45;13.30;;;;;;;5.10;58.17;101442.88;4995242;28;20030;-70
2022/11/29 02:45:13;;;;;;;30.73;13.00;;;;;;;5.11;57.72;101441.97;5000456;28;20081;-71
2022/11/29 02:47:57;;;;;;;28.48;13.73;;;;;;;5.11;58.24;101443.72;5000571;28;20128;-68
2022/11/29 02:50:42;;;;;;;32.38;14.23;;;;;;;5.12;58.08;101437.66;4987675;28;20079;-74
2022/11/29 02:53:34;;;;;;;28.63;12.85;;;;;;;4.99;58.49;101439.50;4987824;28;20145;-71
2022/11/29 02:56:19;;;;;;;28.98;13.00;;;;;;;5.05;58.42;101439.44;4985041;28;20033;-71
2022/11/29 02:58:53;;;;;;;23.17;12.70;;;;;;;5.13;57.83;101437.66;4992397;28;20065;-71
2022/11/29 03:01:56;;;;;;;25.70;13.15;;;;;;;5.17;58.08;101444.53;5003528;28;21063;-71
2022/11/29 03:04:38;;;;;;;35.67;13.38;;;;;;;5.10;57.98;101447.16;5001066;28;20037;-71
2022/11/29 03:07:37;;;;;;;26.25;12.05;;;;;;;5.18;57.76;101446.22;4968397;28;20046;-71
2022/11/29 03:10:30;;;;;;;30.75;13.00;;;;;;;5.16;57.69;101453.16;4990896;28;20415;-70
2022/11/29 03:12:57;;;;;;;26.80;13.15;;;;;;;5.18;57.74;101454.00;5004236;28;20593;-75
2022/11/29 03:15:32;;;;;;;32.78;14.15;;;;;;;5.11;57.87;101454.94;4986095;28;20042;-73
2022/11/29 03:18:31;;;;;;;31.20;13.68;;;;;;;5.19;58.09;101453.16;4987094;28;20049;-72
2022/11/29 03:21:08;;;;;;;26.83;12.45;;;;;;;5.17;57.95;101462.66;5003882;28;20100;-73
2022/11/29 03:23:46;;;;;;;29.30;14.38;;;;;;;5.14;57.93;101465.25;5003229;28;20546;-72
2022/11/29 03:26:43;;;;;;;26.38;12.23;;;;;;;5.15;58.10;101461.81;5004967;28;20338;-73
2022/11/29 03:29:27;;;;;;;25.98;13.05;;;;;;;5.11;57.87;101467.88;4995248;28;20072;-75
2022/11/29 03:32:03;;;;;;;26.23;13.38;;;;;;;5.01;58.56;101463.63;4990244;28;20069;-75
2022/11/29 03:35:05;;;;;;;36.13;14.63;;;;;;;5.10;58.13;101463.59;5003810;28;20425;-70
2022/11/29 03:37:49;;;;;;;;;;;;;;;5.15;58.06;101471.34;4998826;28;20215;-71
2022/11/29 03:40:23;;;;;;;26.98;11.77;;;;;;;5.12;58.09;101469.59;4985501;28;20298;-70
2022/11/29 03:43:05;;;;;;;29.52;12.70;;;;;;;5.08;58.45;101467.94;4984498;28;20045;-70
2022/11/29 03:45:38;;;;;;;31.15;12.95;;;;;;;5.00;58.52;101473.16;5001833;28;20274;-70
2022/11/29 03:48:28;;;;;;;29.63;12.13;;;;;;;5.10;58.40;101471.38;5001705;28;20049;-70
2022/11/29 03:51:02;;;;;;;35.70;12.85;;;;;;;4.96;58.76;101475.78;5003170;28;20502;-70
2022/11/29 03:53:34;;;;;;;27.52;12.07;;;;;;;5.15;58.47;101473.91;5001596;28;20042;-72
2022/11/29 03:56:01;;;;;;;27.13;12.65;;;;;;;5.09;58.66;101468.78;5002006;28;20034;-71
2022/11/29 03:58:29;;;;;;;27.17;13.02;;;;;;;5.10;58.48;101471.38;4984420;28;20041;-71
2022/11/29 04:01:32;;;;;;;31.88;11.45;;;;;;;5.05;58.67;101480.88;4988653;28;20038;-71
2022/11/29 04:04:07;;;;;;;32.28;11.95;;;;;;;5.09;58.71;101480.00;4986446;28;20060;-70
2022/11/29 04:06:47;;;;;;;26.58;12.45;;;;;;;5.05;58.76;101481.75;5002829;28;20981;-73
2022/11/29 04:09:26;;;;;;;26.90;11.93;;;;;;;5.19;58.50;101483.38;5005118;28;20053;-71
2022/11/29 04:12:32;;;;;;;28.98;12.50;;;;;;;5.16;58.60;101494.63;4993885;28;20763;-70
2022/11/29 04:15:15;;;;;;;26.00;10.77;;;;;;;5.17;58.44;101493.75;5005758;28;20038;-71
2022/11/29 04:18:09;;;;;;;25.95;12.98;;;;;;;5.24;58.05;101495.44;5005799;28;20037;-71
2022/11/29 04:21:00;;;;;;;24.58;11.70;;;;;;;5.06;58.78;101487.81;4997865;28;20419;-71
2022/11/29 04:23:45;;;;;;;33.42;12.20;;;;;;;5.03;58.81;101490.41;5005539;28;20041;-71
2022/11/29 04:26:36;;;;;;;21.75;9.43;;;;;;;5.17;58.44;101490.31;5006020;28;20564;-73
2022/11/29 04:29:17;;;;;;;27.05;11.40;;;;;;;5.08;58.53;101496.44;4994335;28;20045;-73
2022/11/29 04:32:06;;;;;;;30.55;11.73;;;;;;;5.01;58.90;101505.09;5003760;28;20057;-73
2022/11/29 04:34:43;;;;;;;21.20;11.20;;;;;;;5.01;58.79;101494.72;5006705;28;20044;-71
2022/11/29 04:37:26;;;;;;;28.52;11.88;;;;;;;5.01;58.87;101499.91;5006320;28;20037;-75
2022/11/29 04:40:01;;;;;;;27.98;12.85;;;;;;;5.03;58.53;101498.16;5004760;28;20527;-74
2022/11/29 04:42:51;;;;;;;26.77;13.48;;;;;;;5.02;58.89;101497.31;4989132;28;20045;-72
2022/11/29 04:45:20;;;;;;;23.80;11.27;;;;;;;5.11;58.55;101509.34;4989830;28;20092;-73
2022/11/29 04:48:08;;;;;;;27.63;11.23;;;;;;;5.09;58.36;101508.50;4991275;28;20046;-73
2022/11/29 04:51:02;;;;;;;20.80;10.88;;;;;;;5.15;58.37;101508.47;5006503;28;20422;-72
2022/11/29 04:53:54;;;;;;;30.10;12.27;;;;;;;5.09;58.71;101513.69;4969918;28;20084;-72
2022/11/29 04:56:40;;;;;;;24.02;11.60;;;;;;;5.08;58.71;101514.56;4995401;28;20613;-72
2022/11/29 04:59:25;;;;;;;25.98;10.77;;;;;;;5.15;58.54;101512.78;4988914;28;20052;-71
2022/11/29 05:02:14;;;;;;;23.55;10.80;;;;;;;5.13;58.75;101512.78;4979675;28;20030;-71
2022/11/29 05:05:13;;;;;;;22.42;10.45;;;;;;;5.15;58.48;101510.19;4994212;28;20041;-71
2022/11/29 05:08:11;;;;;;;23.02;10.77;;;;;;;4.99;59.40;101512.91;4987414;28;20514;-72
2022/11/29 05:10:55;;;;;;;22.50;11.32;;;;;;;5.16;58.71;101515.34;4987117;28;20064;-73
2022/11/29 05:13:41;;;;;;;22.15;10.70;;;;;;;5.13;58.64;101525.75;4988060;28;20183;-73
2022/11/29 05:16:15;;;;;;;23.35;10.80;;;;;;;5.16;58.40;101524.88;4989734;28;20026;-71
2022/11/29 05:19:20;;;;;;;22.73;10.52;;;;;;;5.10;58.59;101523.19;4999033;28;20056;-72
2022/11/29 05:21:58;;;;;;;24.48;11.90;;;;;;;5.15;58.64;101529.19;4986291;28;20034;-71
2022/11/29 05:24:44;;;;;;;24.30;11.20;;;;;;;5.18;58.50;101530.91;4994556;28;20026;-73
2022/11/29 05:27:31;;;;;;;28.60;12.10;;;;;;;4.91;59.07;101522.44;4976021;28;20048;-70
2022/11/29 05:30:03;;;;;;;25.85;11.00;;;;;;;5.05;58.92;101530.97;5003127;28;20040;-71
2022/11/29 05:32:38;;;;;;;;;;;;;;;5.08;58.80;101527.53;4987019;28;20066;-71
2022/11/29 05:35:39;;;;;;;24.63;10.88;;;;;;;5.02;58.83;101531.00;4991936;28;19921;-71
2022/11/29 05:38:42;;;;;;;22.80;11.18;;;;;;;4.95;58.71;101533.66;5006680;28;20068;-71
2022/11/29 05:41:34;;;;;;;27.58;11.15;;;;;;;4.97;58.84;101535.34;4984922;28;20029;-72
2022/11/29 05:44:18;;;;;;;30.75;11.43;;;;;;;4.99;58.59;101537.94;4978155;28;20053;-72
2022/11/29 05:47:00;;;;;;;27.27;10.40;;;;;;;5.02;58.41;101537.91;4991160;28;20056;-74
2022/11/29 05:49:44;;;;;;;28.92;11.05;;;;;;;4.99;58.68;101537.94;5003788;28;20060;-73
2022/11/29 05:52:23;;;;;;;26.63;10.35;;;;;;;4.81;58.57;101539.75;4979284;28;20421;-78
2022/11/29 05:54:58;;;;;;;22.95;10.55;;;;;;;4.73;59.44;101546.66;5011660;28;20191;-79
2022/11/29 05:57:42;;;;;;;24.80;10.73;;;;;;;4.83;58.98;101553.53;4997887;28;20038;-77
2022/11/29 06:00:10;;;;;;;25.08;9.85;;;;;;;4.86;58.58;101551.81;5000198;28;20147;-76
2022/11/29 06:02:52;;;;;;;20.38;10.55;;;;;;;4.90;59.00;101559.59;4997349;28;20546;-77
2022/11/29 06:05:32;;;;;;;21.40;9.85;;;;;;;4.97;58.75;101566.44;4991551;28;20029;-78
2022/11/29 06:08:21;;;;;;;18.48;9.63;;;;;;;4.94;58.54;101560.41;4991055;28;20371;-77
2022/11/29 06:11:14;;;;;;;25.73;10.38;;;;;;;4.83;58.70;101566.50;4987473;28;20653;-70
2022/11/29 06:14:12;;;;;;;23.23;9.48;;;;;;;4.91;58.87;101566.47;4988318;28;20042;-70
2022/11/29 06:16:40;;;;;;;18.73;9.68;;;;;;;4.93;58.50;101574.25;4999962;28;20042;-70
2022/11/29 06:19:42;;;;;;;18.27;8.65;;;;;;;5.00;58.37;101571.59;5008540;28;20029;-79
2022/11/29 06:22:39;;;;;;;20.13;9.93;;;;;;;5.01;58.38;101580.22;4977656;28;20044;-78
2022/11/29 06:25:38;;;;;;;15.02;8.27;;;;;;;4.95;58.65;101575.09;4995862;28;20029;-70
2022/11/29 06:28:42;;;;;;;16.27;9.10;;;;;;;4.90;58.89;101569.94;5003979;28;20245;-72
2022/11/29 06:31:15;;;;;;;15.27;8.50;;;;;;;4.94;58.46;101578.53;5000064;28;20491;-69
2022/11/29 06:34:12;;;;;;;17.63;8.30;;;;;;;5.00;58.83;101581.09;4989215;28;20042;-71
2022/11/29 06:36:52;;;;;;;13.18;8.07;;;;;;;5.02;58.59;101579.38;4997788;28;20132;-69
2022/11/29 06:39:18;;;;;;;18.10;9.00;;;;;;;4.95;58.48;101588.91;4998030;28;20780;-70
2022/11/29 06:41:44;;;;;;;14.10;8.30;;;;;;;4.90;58.67;101580.31;4966812;28;20631;-70
2022/11/29 06:44:10;;;;;;;16.70;7.75;;;;;;;4.96;58.49;101579.41;4979724;28;20269;-71
2022/11/29 06:47:08;;;;;;;16.02;8.40;;;;;;;4.90;58.52;101592.38;4980736;28;20036;-70
2022/11/29 06:49:40;;;;;;;13.85;7.78;;;;;;;4.88;58.79;101582.03;4981414;28;20317;-72
2022/11/29 06:52:24;;;;;;;14.07;7.03;;;;;;;4.80;59.34;101594.13;4981120;28;20719;-72
2022/11/29 06:55:02;;;;;;;18.42;8.63;;;;;;;4.92;58.68;101596.72;4983595;28;20704;-74
2022/11/29 06:57:52;;;;;;;11.80;6.25;;;;;;;4.95;58.48;101598.41;4988334;28;20477;-71
2022/11/29 07:00:25;;;;;;;16.80;8.48;;;;;;;4.96;58.85;101603.56;4998683;28;20546;-73
2022/11/29 07:02:55;;;;;;;16.08;8.20;;;;;;;4.98;58.74;101595.81;4998988;28;20655;-74
2022/11/29 07:05:29;;;;;;;13.60;7.13;;;;;;;5.07;58.57;101607.84;4988703;28;20044;-74
2022/11/29 07:07:59;;;;;;;13.20;6.95;;;;;;;4.97;58.87;101609.63;4982950;28;20347;-74
2022/11/29 07:10:26;;;;;;;14.30;7.50;;;;;;;5.01;58.44;101599.25;4988547;28;20115;-74
2022/11/29 07:12:52;;;;;;;12.88;7.35;;;;;;;4.88;58.75;101607.06;5000356;28;20046;-74
2022/11/29 07:15:21;;;;;;;12.63;7.50;;;;;;;5.00;59.00;101612.19;4999651;28;20088;-74
2022/11/29 07:18:11;;;;;;;10.25;6.63;;;;;;;5.08;58.68;101613.03;4994371;28;20540;-73
2022/11/29 07:21:04;;;;;;;11.02;6.90;;;;;;;5.03;58.64;101614.75;4998181;28;20025;-73
2022/11/29 07:24:02;;;;;;;12.35;7.20;;;;;;;5.13;58.95;101608.69;5001080;28;20049;-75
2022/11/29 07:26:52;;;;;;;12.15;6.70;;;;;;;5.15;58.97;101609.53;4946536;28;20411;-76
2022/11/29 07:29:26;;;;;;;13.68;6.95;;;;;;;5.18;58.87;101614.69;4968042;28;20050;-75
2022/11/29 07:32:15;;;;;;;12.65;6.25;;;;;;;5.13;58.53;101619.03;4997689;28;20355;-72
2022/11/29 07:35:07;;;;;;;13.25;6.70;;;;;;;5.22;58.82;101612.94;4988467;28;20065;-73
2022/11/29 07:37:48;;;;;;;14.38;7.32;;;;;;;5.24;58.78;101616.41;4998550;28;20045;-75
2022/11/29 07:40:38;;;;;;;11.93;7.15;;;;;;;5.13;59.36;101613.00;4985219;28;20136;-76
2022/11/29 07:43:22;;;;;;;12.77;7.03;;;;;;;5.29;58.93;101626.75;4987022;28;20046;-77
2022/11/29 07:45:49;;;;;;;13.38;7.32;;;;;;;5.40;58.76;101624.94;4997116;28;20093;-72
2022/11/29 07:48:16;;;;;;;17.42;7.47;;;;;;;5.38;58.55;101626.69;4987534;28;20497;-71
2022/11/29 07:50:42;;;;;;;14.73;7.50;;;;;;;5.39;58.63;101636.16;4999147;28;20042;-72
2022/11/29 07:53:18;;;;;;;14.75;8.25;;;;;;;5.32;58.41;101631.88;4991784;28;20145;-70
2022/11/29 07:55:45;;;;;;;14.90;8.25;;;;;;;5.25;58.22;101642.28;4996463;28;20676;-70
2022/11/29 07:58:11;;;;;;;11.90;6.15;;;;;;;5.20;58.48;101653.56;4984029;28;20184;-71
2022/11/29 08:00:38;;;;;;;10.75;6.00;;;;;;;5.11;58.33;101643.25;5000460;28;20287;-71
2022/11/29 08:03:04;;;;;;;10.95;7.22;;;;;;;4.96;58.45;101646.75;4990588;28;20568;-71
2022/11/29 08:05:29;;;;;;;14.02;6.45;;;;;;;5.00;58.46;101648.47;5000928;28;20038;-71
2022/11/29 08:07:55;;;;;;;10.95;6.70;;;;;;;5.00;58.58;101648.47;4988929;28;20037;-70
2022/11/29 08:10:21;;;;;;;13.10;7.25;;;;;;;4.88;58.85;101648.50;5004972;28;20067;-71
2022/11/29 08:12:49;;;;;;;12.40;7.05;;;;;;;4.88;58.92;101653.69;4999154;28;20232;-70
2022/11/29 08:15:15;;;;;;;16.27;7.95;;;;;;;4.93;58.56;101657.13;5002849;28;20458;-72
2022/11/29 08:17:40;;;;;;;11.82;7.18;;;;;;;4.77;58.71;101657.16;4990117;28;20045;-70
2022/11/29 08:20:08;;;;;;;9.93;6.45;;;;;;;4.74;58.88;101662.34;4985686;28;20044;-70
2022/11/29 08:22:33;;;;;;;12.82;8.07;;;;;;;4.86;58.79;101658.88;4990516;28;20034;-71
2022/11/29 08:25:00;;;;;;;14.52;8.02;;;;;;;4.84;58.47;101661.44;4984844;28;20085;-70
2022/11/29 08:27:25;;;;;;;15.38;8.13;;;;;;;4.94;58.38;101664.03;5000248;28;20048;-70
2022/11/29 08:29:54;;;;;;;19.02;9.48;;;;;;;4.88;58.55;101664.94;4986943;28;20570;-70
2022/11/29 08:32:19;;;;;;;19.38;8.50;;;;;;;4.84;58.36;101658.00;5000299;28;20511;-70
2022/11/29 08:34:44;;;;;;;20.73;9.15;;;;;;;4.84;58.29;101668.38;5001995;28;20092;-70
2022/11/29 08:37:10;;;;;;;13.60;7.82;;;;;;;4.82;58.58;101660.59;5001410;28;20092;-72
2022/11/29 08:39:36;;;;;;;16.75;8.90;;;;;;;4.74;58.44;101667.50;4993640;28;20052;-70
2022/11/29 08:42:04;;;;;;;16.42;8.75;;;;;;;4.69;58.65;101671.84;5001987;28;20144;-72
2022/11/29 08:44:29;;;;;;;20.27;8.65;;;;;;;4.64;58.73;101668.41;5003421;28;20044;-70
2022/11/29 08:50:00;;;;;;;20.60;10.38;;;;;;;4.63;58.71;101684.81;5001203;28;20116;-72
2022/11/29 08:55:09;;;;;;;18.67;9.40;;;;;;;4.58;59.06;101691.72;5005400;28;20042;-70
2022/11/29 08:57:34;;;;;;;13.35;8.93;;;;;;;4.68;58.31;101693.44;4995400;28;20114;-70
2022/11/29 09:00:47;;;;;;;15.20;8.38;;;;;;;4.74;58.43;101692.56;5001416;28;20041;-72
2022/11/29 09:06:23;;;;;;;15.02;8.85;;;;;;;4.67;58.24;101704.66;4986041;28;20128;-73
2022/11/29 09:09:11;;;;;;;16.90;8.23;;;;;;;4.66;58.35;101713.31;4966171;28;20052;-73
2022/11/29 09:12:24;;;;;;;16.90;7.93;;;;;;;4.57;58.54;101705.56;4960011;28;20038;-73
2022/11/29 09:15:23;;;;;;;15.35;7.85;;;;;;;4.44;58.49;101717.66;4999510;28;20314;-72
2022/11/29 09:18:05;;;;;;;14.25;6.72;;;;;;;4.54;58.51;101710.72;4953279;28;20054;-72
2022/11/29 09:21:19;;;;;;;17.55;7.93;;;;;;;4.54;58.63;101721.97;4999709;28;20033;-75
2022/11/29 09:23:47;;;;;;;16.40;8.40;;;;;;;4.63;58.17;101718.47;4929766;28;20092;-73
2022/11/29 09:26:26;;;;;;;14.50;8.38;;;;;;;4.59;58.01;101720.22;5001861;28;20034;-73
2022/11/29 09:28:59;;;;;;;15.93;8.07;;;;;;;4.63;58.09;101727.13;4999243;28;20754;-74
2022/11/29 09:31:27;;;;;;;15.80;8.00;;;;;;;4.49;58.46;101717.63;5003597;28;20060;-73
2022/11/29 09:33:54;;;;;;;16.13;7.88;;;;;;;4.52;58.35;101718.50;4982967;28;20121;-73
2022/11/29 09:36:52;;;;;;;17.63;7.88;;;;;;;4.46;58.45;101723.69;4989689;28;20033;-73
2022/11/29 09:39:32;;;;;;;13.33;7.33;;;;;;;4.28;59.07;101729.72;4962621;28;20070;-72
2022/11/29 09:42:42;;;;;;;15.10;7.43;;;;;;;4.19;58.76;101729.75;4986247;28;20379;-74
2022/11/29 09:45:48;;;;;;;15.85;7.00;;;;;;;4.20;58.71;101734.03;4988289;28;20045;-73
2022/11/29 09:53:05;;;;;;;14.10;7.22;;;;;;;4.18;58.70;101730.59;4996265;28;20848;-74
2022/11/29 10:01:11;;;;;;;12.65;6.97;;;;;;;4.28;58.38;101744.41;4849796;29;20662;-75
2022/11/29 10:03:59;;;;;;;12.15;6.10;;;;;;;4.38;58.41;101746.97;4863788;28;20040;-73
2022/11/29 10:07:04;;;;;;;11.90;6.70;;;;;;;4.53;57.96;101750.44;4918228;28;20139;-72
2022/11/29 10:09:56;;;;;;;12.48;6.68;;;;;;;4.50;58.03;101755.59;4909103;28;20054;-74
2022/11/29 10:13:03;;;;;;;12.68;7.03;;;;;;;4.43;58.10;101745.25;4993819;28;20049;-72
2022/11/29 10:16:14;;;;;;;14.38;6.68;;;;;;;4.28;58.49;101740.09;4972903;28;20041;-72
2022/11/29 10:19:27;;;;;;;10.20;5.65;;;;;;;4.14;58.80;101742.69;5004018;28;20233;-72
2022/11/29 10:26:06;;;;;;;10.20;6.28;;;;;;;4.22;58.94;101740.94;4920110;29;20064;-72
2022/11/29 10:28:35;;;;;;;16.98;7.28;;;;;;;4.22;58.54;101740.94;4914582;28;20055;-68
2022/11/29 10:31:53;;;;;;;12.75;7.10;;;;;;;4.23;58.73;101736.66;4984438;28;20706;-69
2022/11/29 10:49:43;;;;;;;15.95;6.93;;;;;;;4.10;58.73;101750.44;4930973;28;20046;-76
2022/11/29 10:53:00;;;;;;;;;;;;;;;;;;;;;
2022/11/29 10:55:44;;;;;;;13.23;7.43;;;;;;;4.22;58.54;101760.78;4940685;28;20100;-76
2022/11/29 10:58:51;;;;;;;15.48;7.53;;;;;;;4.12;59.12;101759.91;5002223;28;20204;-72
2022/11/29 11:05:40;;;;;;;21.80;8.32;;;;;;;4.18;58.64;101765.06;4879564;29;19922;-71
2022/11/29 11:27:10;;;;;;;22.17;9.02;;;;;;;4.27;58.92;101760.78;4902276;29;20062;-71
2022/11/29 11:30:01;;;;;;;;;;;;;;;;;;;;;
2022/11/29 11:33:23;;;;;;;21.23;10.48;;;;;;;4.25;58.90;101765.09;4951335;28;20535;-73
2022/11/29 11:36:20;;;;;;;20.30;9.10;;;;;;;4.48;58.40;101771.16;4980466;28;20039;-73
2022/11/29 11:39:26;;;;;;;21.50;9.65;;;;;;;4.47;58.57;101772.00;5008372;28;20057;-73
2022/11/29 11:44:48;;;;;;;21.05;10.13;;;;;;;4.46;58.63;101777.19;4992627;28;20471;-71
2022/11/29 11:48:19;;;;;;;;;;;;;;;;;;;;;
2022/11/29 11:58:55;;;;;;;17.05;8.85;;;;;;;4.71;58.07;101778.88;4882248;29;20315;-72
2022/11/29 12:01:47;;;;;;;18.40;9.30;;;;;;;4.90;58.00;101784.06;4896794;28;20432;-73
2022/11/29 12:04:50;;;;;;;15.80;7.90;;;;;;;4.87;57.75;101791.81;5007866;28;20052;-72
2022/11/29 12:07:40;;;;;;;18.10;9.35;;;;;;;4.90;57.95;101786.66;4952490;28;20490;-75
2022/11/29 12:10:30;;;;;;;25.48;8.88;;;;;;;5.00;57.79;101785.78;4985534;28;20137;-73
2022/11/29 12:13:02;;;;;;;15.77;8.80;;;;;;;5.14;57.55;101785.75;4997805;28;20590;-73
2022/11/29 12:15:48;;;;;;;19.23;9.35;;;;;;;5.23;57.17;101791.78;4994721;28;20046;-71
2022/11/29 12:18:43;;;;;;;18.90;9.45;;;;;;;5.17;57.23;101801.31;5005575;28;20529;-73
2022/11/29 12:21:20;;;;;;;20.02;9.75;;;;;;;5.21;56.97;101803.91;4988364;28;20317;-73
2022/11/29 12:24:46;;;;;;;18.35;8.65;;;;;;;5.15;56.98;101806.50;4979228;28;20041;-72
2022/11/29 12:27:33;;;;;;;;;;;;;;;;;;;;;
2022/11/29 12:30:17;;;;;;;20.88;9.27;;;;;;;5.11;57.11;101817.72;5007863;28;20409;-71
2022/11/29 12:32:57;;;;;;;21.45;9.68;;;;;;;5.19;57.06;101809.91;5007116;28;20781;-72
2022/11/29 12:36:14;;;;;;;17.05;8.50;;;;;;;5.24;56.91;101816.81;5000481;28;20117;-72
2022/11/29 12:40:17;;;;;;;17.40;9.10;;;;;;;5.35;56.73;101819.41;4971928;28;20046;-73
2022/11/29 12:46:06;;;;;;;19.08;9.07;;;;;;;5.33;56.90;101825.47;5010007;28;20036;-74
2022/11/29 12:48:52;;;;;;;24.80;10.10;;;;;;;5.34;56.95;101824.56;4990061;28;20050;-73
2022/11/29 12:51:36;;;;;;;23.90;10.18;;;;;;;5.28;57.00;101832.38;5009566;28;20444;-74
2022/11/29 12:54:32;;;;;;;;;;;;;;;;;;;;;
2022/11/29 12:57:47;;;;;;;19.33;9.55;;;;;;;5.30;56.72;101846.19;4983650;28;20045;-73
2022/11/29 13:01:22;;;;;;;;;;;;;;;;;;;;;
2022/11/29 13:12:20;;;;;;;18.58;9.77;;;;;;;5.21;56.47;101845.34;5010069;28;20123;-73
2022/11/29 13:49:41;;;;;;;22.48;10.93;;;;;;;4.90;57.21;101854.00;4885361;28;20051;-73
2022/11/29 14:08:47;;;;;;;16.40;8.70;;;;;;;4.84;56.94;101871.25;4814537;29;20150;-73
2022/11/29 14:11:15;;;;;;;21.42;10.65;;;;;;;4.89;56.75;101871.28;4847084;29;20056;-72
2022/11/29 14:22:29;;;;;;;17.48;9.68;;;;;;;4.66;57.22;101884.22;4819946;29;20568;-73
2022/11/29 14:25:41;;;;;;;;;;;;;;;;;;;;;
2022/11/29 14:33:26;;;;;;;16.45;7.90;;;;;;;4.76;56.73;101904.06;4808266;29;20627;-72
2022/11/29 14:36:29;;;;;;;37.63;16.23;;;;;;;4.75;56.89;101902.34;4845696;29;20049;-73
2022/11/29 14:39:28;;;;;;;19.17;10.98;;;;;;;4.66;57.35;101902.34;4844049;29;20044;-72
2022/11/29 14:42:47;;;;;;;19.75;9.43;;;;;;;4.73;57.44;101906.66;4859925;29;20552;-72
2022/11/29 14:46:47;;;;;;;;;;;;;;;;;;;;;
2022/11/29 15:01:06;;;;;;;18.70;10.18;;;;;;;4.68;57.31;101916.16;4959470;28;20557;-72
2022/11/29 15:03:47;;;;;;;20.08;9.73;;;;;;;4.68;57.23;101925.66;5003807;28;20208;-72
2022/11/29 15:06:33;;;;;;;17.38;8.68;;;;;;;4.63;57.06;101925.63;5011083;28;20021;-72
2022/11/29 15:37:20;;;;;;;;;;;;;;;;;;;;;
2022/11/29 15:48:23;;;;;;;;;;;;;;;;;;;;;
2022/11/29 15:51:43;;;;;;;13.45;7.60;;;;;;;4.61;57.00;101976.56;4777669;29;20423;-71
2022/11/29 15:54:39;;;;;;;22.80;10.98;;;;;;;4.63;57.16;101972.22;4774168;29;21848;-74
2022/11/29 15:58:06;;;;;;;26.60;11.63;;;;;;;4.64;57.45;101971.41;4789225;29;20070;-72
2022/11/29 16:01:45;;;;;;;24.45;12.40;;;;;;;4.66;56.68;101984.34;4798340;29;20620;-74
2022/11/29 16:05:05;;;;;;;;;;;;;;;;;;;;;